Keystone, South Dakota
Current Conditions -  °F | °C
As of 7:53 PM on Tuesday 21 Oct 2014 (Local Time) from KCUT Reporting Station
Clear Clear  
Wind Chill: 60°   Ceiling: Unl
Heat Index: 60°   Visibility: 10mi
Dew Point: 37°   Wind: 9mph
Humidity: 42%   Direction: 210°SSW
Pressure: 29.89"   Gusts: NA
Location:  43.9°N, 103.42°W
Report Text: KCUT 220153Z AUTO 21008KT 10SM CLR 16/03 A2989 RMK AO2 SLP068 T01560028
Loading
Personal Weather Stations






























Interactive Weather Map New forecast layout! Learn more

10-Day Weather Forecast

Advertisements
Track Severe Weather on mobile